createdAt,value
2023-04-18T00:00:10.583Z,15.87
2023-04-18T00:02:26.271Z,19.67
2023-04-18T00:04:21.931Z,19.23
2023-04-18T00:06:17.604Z,21.37
2023-04-18T00:08:13.030Z,18.73
2023-04-18T00:10:10.044Z,15.97
2023-04-18T00:12:05.109Z,16.93
2023-04-18T00:14:00.940Z,21.37
2023-04-18T00:15:58.607Z,16.23
2023-04-18T00:17:56.590Z,17.17
2023-04-18T00:19:51.879Z,17.53
2023-04-18T00:21:47.517Z,17.57
2023-04-18T00:23:43.305Z,18.60
2023-04-18T00:25:38.743Z,17.63
2023-04-18T00:27:34.229Z,15.63
2023-04-18T00:29:29.654Z,16.90
2023-04-18T00:31:27.629Z,17.23
2023-04-18T00:33:23.192Z,21.90
2023-04-18T00:35:18.276Z,17.53
2023-04-18T00:37:13.682Z,20.10
2023-04-18T00:39:09.442Z,14.50
2023-04-18T00:41:04.970Z,18.53
2023-04-18T00:42:59.982Z,17.83
2023-04-18T00:44:55.357Z,16.60
2023-04-18T00:46:53.049Z,17.53
2023-04-18T00:48:49.843Z,18.57
2023-04-18T00:50:45.109Z,19.13
2023-04-18T00:52:40.881Z,18.37
2023-04-18T00:54:35.968Z,16.57
2023-04-18T00:56:32.254Z,19.93
2023-04-18T00:58:27.620Z,18.70
2023-04-18T01:00:23.359Z,17.10
2023-04-18T01:02:21.268Z,18.90
2023-04-18T01:04:17.349Z,16.57
2023-04-18T01:06:12.758Z,20.67
2023-04-18T01:08:08.276Z,17.03
2023-04-18T01:10:04.569Z,16.33
2023-04-18T01:12:00.217Z,17.27
2023-04-18T01:14:02.782Z,15.63
2023-04-18T01:15:59.141Z,20.47
2023-04-18T01:17:58.289Z,18.77
2023-04-18T01:19:53.738Z,15.60
2023-04-18T01:21:48.849Z,18.90
2023-04-18T01:23:44.421Z,20.10
2023-04-18T01:25:39.461Z,19.27
2023-04-18T01:27:34.520Z,21.27
2023-04-18T01:29:29.973Z,22.67
2023-04-18T01:31:27.420Z,17.90
2023-04-18T01:33:23.052Z,18.37
2023-04-18T01:35:18.241Z,23.43
2023-04-18T01:37:13.759Z,22.43
2023-04-18T01:39:09.632Z,17.63
2023-04-18T01:41:07.684Z,16.87
2023-04-18T01:43:02.711Z,20.07
2023-04-18T01:44:58.194Z,19.03
2023-04-18T01:46:53.373Z,16.67
2023-04-18T01:48:49.055Z,19.67
2023-04-18T01:50:44.249Z,19.67
2023-04-18T01:52:39.613Z,16.23
2023-04-18T01:54:34.737Z,18.00
2023-04-18T01:56:32.924Z,17.53
2023-04-18T01:58:28.185Z,17.57
2023-04-18T02:00:24.456Z,19.23
2023-04-18T02:02:19.814Z,18.23
2023-04-18T02:04:16.363Z,17.00
2023-04-18T02:06:12.044Z,21.17
2023-04-18T02:08:08.435Z,18.30
2023-04-18T02:10:06.926Z,19.50
2023-04-18T02:12:07.184Z,20.43
2023-04-18T02:14:02.544Z,17.20
2023-04-18T02:15:57.986Z,19.87
2023-04-18T02:17:53.639Z,20.33
2023-04-18T02:19:49.084Z,17.57
2023-04-18T02:21:44.677Z,18.50
2023-04-18T02:23:43.120Z,16.87
2023-04-18T02:25:38.531Z,16.50
2023-04-18T02:27:36.554Z,17.33
2023-04-18T02:29:31.631Z,15.70
2023-04-18T02:31:27.142Z,19.63
2023-04-18T02:33:22.276Z,19.00
2023-04-18T02:35:17.813Z,17.10
2023-04-18T02:37:12.876Z,17.00
2023-04-18T02:39:08.404Z,17.30
2023-04-18T02:41:03.783Z,18.73
2023-04-18T02:43:02.718Z,16.53
2023-04-18T02:44:58.023Z,18.80
2023-04-18T02:46:53.525Z,19.07
2023-04-18T02:48:48.712Z,22.87
2023-04-18T02:50:44.527Z,20.60
2023-04-18T02:52:39.864Z,18.67
2023-04-18T02:54:35.660Z,18.77
2023-04-18T02:56:31.144Z,16.87
2023-04-18T02:58:29.575Z,17.37
2023-04-18T03:00:25.166Z,26.30
2023-04-18T03:02:21.157Z,17.47
2023-04-18T03:04:16.798Z,20.00
2023-04-18T03:06:12.693Z,18.33
2023-04-18T03:08:07.988Z,17.87
2023-04-18T03:10:03.658Z,19.47
2023-04-18T03:11:59.004Z,21.57
2023-04-18T03:13:57.747Z,16.57
2023-04-18T03:15:53.505Z,18.50
2023-04-18T03:17:49.425Z,18.03
2023-04-18T03:19:45.108Z,15.63
2023-04-18T03:21:41.017Z,18.17
2023-04-18T03:23:36.436Z,13.80
2023-04-18T03:25:32.392Z,16.20
2023-04-18T03:27:27.797Z,18.90
2023-04-18T03:29:26.233Z,18.83
2023-04-18T03:31:21.618Z,16.47
2023-04-18T03:33:17.336Z,18.53
2023-04-18T03:35:12.798Z,19.70
2023-04-18T03:37:08.488Z,17.40
2023-04-18T03:39:03.958Z,14.80
2023-04-18T03:40:59.671Z,15.50
2023-04-18T03:42:55.123Z,16.97
2023-04-18T03:44:53.451Z,19.03
2023-04-18T03:46:48.864Z,18.40
2023-04-18T03:48:44.724Z,18.30
2023-04-18T03:50:40.107Z,15.67
2023-04-18T03:52:35.818Z,18.87
2023-04-18T03:54:31.162Z,17.90
2023-04-18T03:56:27.095Z,18.13
2023-04-18T03:58:23.804Z,19.53
2023-04-18T04:00:22.301Z,17.37
2023-04-18T04:02:17.825Z,18.40
2023-04-18T04:04:15.729Z,19.90
2023-04-18T04:06:11.684Z,20.57
2023-04-18T04:08:08.291Z,22.30
2023-04-18T04:10:04.742Z,17.03
2023-04-18T04:12:02.470Z,18.57
2023-04-18T04:13:57.789Z,18.23
2023-04-18T04:15:57.270Z,18.40
2023-04-18T04:17:54.207Z,18.90
2023-04-18T04:19:50.002Z,18.37
2023-04-18T04:21:45.413Z,18.93
2023-04-18T04:23:42.059Z,19.27
2023-04-18T04:25:39.394Z,16.53
2023-04-18T04:27:39.120Z,23.17
2023-04-18T04:29:35.871Z,16.33
2023-04-18T04:31:34.462Z,17.23
2023-04-18T04:33:33.385Z,15.87
2023-04-18T04:35:29.255Z,17.70
2023-04-18T04:37:26.146Z,19.80
2023-04-18T04:39:22.145Z,14.70
2023-04-18T04:41:17.474Z,20.23
2023-04-18T04:43:16.189Z,17.03
2023-04-18T04:45:13.962Z,18.80
2023-04-18T04:47:12.116Z,17.77
2023-04-18T04:49:07.218Z,16.73
2023-04-18T04:51:03.843Z,19.80
2023-04-18T04:52:58.910Z,19.70
2023-04-18T04:54:54.910Z,20.37
2023-04-18T04:56:50.148Z,18.50
2023-04-18T04:58:45.932Z,22.33
2023-04-18T05:00:41.163Z,22.73
2023-04-18T05:02:39.337Z,16.90
2023-04-18T05:04:34.591Z,21.73
2023-04-18T05:06:30.193Z,21.40
2023-04-18T05:08:25.214Z,18.90
2023-04-18T05:10:20.682Z,21.03
2023-04-18T05:12:15.949Z,16.30
2023-04-18T05:14:12.844Z,18.33
2023-04-18T05:16:08.911Z,17.50
2023-04-18T05:18:07.205Z,19.73
2023-04-18T05:20:02.310Z,19.50
2023-04-18T05:21:57.759Z,28.97
2023-04-18T05:23:52.857Z,23.77
2023-04-18T05:25:48.249Z,20.27
2023-04-18T05:27:43.520Z,18.93
2023-04-18T05:29:38.915Z,17.30
2023-04-18T05:31:34.394Z,17.50
2023-04-18T05:33:32.939Z,17.13
2023-04-18T05:35:27.997Z,19.53
2023-04-18T05:37:26.117Z,21.27
2023-04-18T05:39:21.193Z,21.43
2023-04-18T05:41:16.644Z,20.03
2023-04-18T05:43:11.726Z,17.67
2023-04-18T05:45:08.043Z,19.10
2023-04-18T05:47:05.865Z,18.97
2023-04-18T05:49:06.476Z,18.93
2023-04-18T05:51:02.102Z,16.27
2023-04-18T05:52:59.370Z,21.10
2023-04-18T05:54:54.546Z,20.57
2023-04-18T05:56:50.469Z,17.83
2023-04-18T05:58:51.366Z,19.60
2023-04-18T06:00:48.158Z,23.37
2023-04-18T06:02:43.393Z,22.20
2023-04-18T06:04:41.973Z,17.93
2023-04-18T06:06:37.612Z,20.13
2023-04-18T06:08:32.948Z,18.00
2023-04-18T06:10:27.982Z,18.37
2023-04-18T06:12:23.396Z,18.00
2023-04-18T06:14:18.449Z,20.13
2023-04-18T06:16:14.064Z,21.67
2023-04-18T06:18:09.489Z,19.03
2023-04-18T06:20:08.414Z,17.90
2023-04-18T06:22:03.459Z,17.53
2023-04-18T06:23:58.860Z,18.73
2023-04-18T06:25:53.994Z,17.53
2023-04-18T06:27:49.372Z,17.43
2023-04-18T06:29:44.591Z,20.43
2023-04-18T06:31:39.992Z,18.97
2023-04-18T06:33:36.587Z,24.70
2023-04-18T06:35:34.913Z,19.43
2023-04-18T06:37:30.005Z,17.97
2023-04-18T06:39:25.831Z,20.87
2023-04-18T06:41:21.175Z,18.40
2023-04-18T06:43:16.918Z,19.40
2023-04-18T06:45:13.452Z,18.80
2023-04-18T06:47:09.205Z,19.60
2023-04-18T06:49:05.703Z,20.40
2023-04-18T06:51:04.009Z,18.97
2023-04-18T06:52:59.165Z,17.57
2023-04-18T06:54:54.702Z,16.70
2023-04-18T06:56:49.922Z,18.37
2023-04-18T06:58:45.364Z,14.50
2023-04-18T07:00:41.992Z,18.93
2023-04-18T07:02:41.311Z,18.23
2023-04-18T07:04:36.715Z,21.60
2023-04-18T07:06:35.281Z,20.40
2023-04-18T07:08:30.308Z,16.17
2023-04-18T07:10:26.233Z,25.17
2023-04-18T07:12:21.401Z,17.73
2023-04-18T07:14:16.952Z,17.90
2023-04-18T07:16:12.685Z,21.40
2023-04-18T07:18:08.208Z,17.30
2023-04-18T07:20:03.641Z,19.10
2023-04-18T07:22:01.697Z,22.63
2023-04-18T07:23:56.761Z,21.23
2023-04-18T07:25:52.368Z,21.93
2023-04-18T07:27:47.613Z,20.20
2023-04-18T07:29:43.085Z,17.83
2023-04-18T07:31:38.116Z,26.33
2023-04-18T07:33:34.064Z,16.23
2023-04-18T07:35:29.162Z,15.00
2023-04-18T07:37:27.655Z,17.17
2023-04-18T07:39:22.863Z,17.00
2023-04-18T07:41:18.405Z,17.37
2023-04-18T07:43:13.488Z,17.60
2023-04-18T07:45:10.300Z,18.97
2023-04-18T07:47:05.621Z,16.50
2023-04-18T07:49:02.481Z,17.67
2023-04-18T07:50:57.466Z,21.37
2023-04-18T07:52:55.434Z,18.80
2023-04-18T07:54:50.542Z,20.03
2023-04-18T07:56:45.946Z,19.23
2023-04-18T07:58:41.200Z,25.70
2023-04-18T08:00:38.943Z,16.87
2023-04-18T08:02:34.148Z,21.10
2023-04-18T08:04:30.636Z,19.33
2023-04-18T08:06:26.385Z,17.23
2023-04-18T08:08:27.576Z,19.60
2023-04-18T08:10:23.924Z,16.20
2023-04-18T08:12:19.462Z,16.50
2023-04-18T08:14:14.892Z,19.73
2023-04-18T08:16:10.504Z,16.37
2023-04-18T08:18:05.736Z,17.83
2023-04-18T08:20:01.168Z,18.80
2023-04-18T08:21:56.376Z,15.20
2023-04-18T08:23:54.492Z,23.23
2023-04-18T08:25:49.628Z,17.07
2023-04-18T08:27:45.064Z,18.37
2023-04-18T08:29:40.144Z,20.63
2023-04-18T08:31:35.734Z,23.23
2023-04-18T08:33:31.715Z,17.70
2023-04-18T08:35:27.168Z,18.33
2023-04-18T08:37:22.213Z,16.93
2023-04-18T08:39:20.318Z,16.97
2023-04-18T08:41:18.464Z,19.00
2023-04-18T08:43:16.325Z,17.53
2023-04-18T08:45:15.282Z,17.37
2023-04-18T08:47:14.775Z,18.47
2023-04-18T08:49:14.029Z,19.43
2023-04-18T08:51:11.259Z,17.23
2023-04-18T08:53:06.810Z,20.40
2023-04-18T08:55:05.520Z,17.47
2023-04-18T08:57:09.374Z,17.90
2023-04-18T08:59:06.554Z,17.77
2023-04-18T09:01:02.518Z,21.77
2023-04-18T09:02:59.308Z,16.93
2023-04-18T09:04:55.971Z,16.87
2023-04-18T09:06:55.206Z,19.57
2023-04-18T09:08:59.421Z,18.57
2023-04-18T09:10:58.684Z,17.80
2023-04-18T09:12:53.910Z,17.70
2023-04-18T09:14:51.138Z,16.27
2023-04-18T09:16:50.647Z,15.80
2023-04-18T09:19:13.984Z,19.33
2023-04-18T09:21:21.406Z,17.53
2023-04-18T09:23:26.342Z,17.37
2023-04-18T09:25:29.399Z,20.17
2023-04-18T09:27:28.301Z,22.50
2023-04-18T09:29:25.210Z,19.07
2023-04-18T09:31:22.735Z,16.90
2023-04-18T09:33:17.985Z,25.33
2023-04-18T09:35:13.421Z,15.77
2023-04-18T09:37:10.746Z,18.03
2023-04-18T09:39:06.356Z,19.70
2023-04-18T09:41:10.829Z,17.97
2023-04-18T09:43:24.116Z,20.20
2023-04-18T09:45:21.769Z,15.67
2023-04-18T09:47:17.494Z,17.83
2023-04-18T09:49:12.873Z,15.33
2023-04-18T09:51:10.887Z,20.70
2023-04-18T09:53:06.263Z,19.47
2023-04-18T09:55:04.727Z,16.80
2023-04-18T09:57:01.213Z,17.87
2023-04-18T09:59:10.138Z,19.60
2023-04-18T10:01:07.681Z,17.80
2023-04-18T10:03:11.043Z,19.37
2023-04-18T10:05:09.220Z,19.30
2023-04-18T10:07:06.076Z,23.27
2023-04-18T10:09:01.660Z,16.53
2023-04-18T10:10:58.834Z,17.90
2023-04-18T10:13:00.568Z,21.20
2023-04-18T10:14:59.666Z,17.60
2023-04-18T10:16:55.282Z,18.70
2023-04-18T10:18:52.574Z,16.97
2023-04-18T10:20:50.161Z,17.63
2023-04-18T10:22:45.972Z,20.13
2023-04-18T10:24:53.434Z,16.27
2023-04-18T10:26:51.985Z,16.63
2023-04-18T10:28:54.568Z,16.15
2023-04-18T10:30:58.713Z,19.37
2023-04-18T10:32:58.372Z,20.80
2023-04-18T10:34:57.263Z,23.53
2023-04-18T10:37:17.899Z,21.33
2023-04-18T10:39:26.141Z,17.03
2023-04-18T10:41:24.149Z,15.53
2023-04-18T10:43:19.858Z,20.37
2023-04-18T10:45:22.211Z,16.57
2023-04-18T10:47:26.173Z,27.83
2023-04-18T10:49:26.361Z,16.77
2023-04-18T10:51:26.378Z,16.93
2023-04-18T10:53:25.352Z,21.40
2023-04-18T10:55:23.220Z,17.83
2023-04-18T10:57:18.813Z,18.27
2023-04-18T10:59:15.728Z,18.07
2023-04-18T11:01:18.379Z,15.40
2023-04-18T11:03:16.652Z,19.27
2023-04-18T11:05:15.180Z,19.13
2023-04-18T11:07:10.661Z,23.80
2023-04-18T11:09:16.765Z,16.80
2023-04-18T11:11:12.251Z,18.40
2023-04-18T11:13:08.658Z,19.90
2023-04-18T11:15:05.616Z,18.63
2023-04-18T11:17:00.870Z,16.47
2023-04-18T11:19:03.463Z,15.67
2023-04-18T11:21:03.910Z,19.80
2023-04-18T11:23:00.842Z,15.63
2023-04-18T11:25:01.020Z,15.10
2023-04-18T11:27:02.416Z,15.00
2023-04-18T11:29:00.920Z,28.37
2023-04-18T11:31:03.650Z,15.63
2023-04-18T11:33:01.274Z,15.17
2023-04-18T11:34:59.482Z,17.27
2023-04-18T11:36:57.583Z,15.67
2023-04-18T11:38:53.745Z,23.07
2023-04-18T11:40:55.802Z,19.63
2023-04-18T11:42:59.656Z,18.13
2023-04-18T11:44:56.313Z,16.00
2023-04-18T11:46:52.707Z,17.17
2023-04-18T11:48:50.337Z,17.85
2023-04-18T11:50:49.746Z,18.60
2023-04-18T11:52:46.567Z,21.00
2023-04-18T11:54:42.872Z,21.97
2023-04-18T11:56:48.419Z,16.97
2023-04-18T11:58:43.637Z,22.60
2023-04-18T12:00:43.290Z,17.37
2023-04-18T12:02:43.967Z,16.83
2023-04-18T12:04:53.750Z,21.97
2023-04-18T12:06:52.474Z,16.00
2023-04-18T12:08:48.134Z,18.67
2023-04-18T12:10:50.675Z,17.80
2023-04-18T12:12:50.872Z,18.73
2023-04-18T12:14:46.110Z,16.15
2023-04-18T12:16:41.583Z,19.67
2023-04-18T12:18:36.961Z,18.48
2023-04-18T12:24:27.873Z,19.08
2023-04-18T12:26:23.896Z,16.75
2023-04-18T12:28:20.084Z,16.03
2023-04-18T12:30:17.056Z,16.40
2023-04-18T12:32:12.084Z,17.70
2023-04-18T12:34:07.633Z,19.27
2023-04-18T12:36:02.798Z,19.77
2023-04-18T12:37:59.890Z,23.23
2023-04-18T12:39:57.679Z,18.45
2023-04-18T12:41:53.184Z,16.05
2023-04-18T12:43:48.253Z,17.03
2023-04-18T12:45:43.717Z,25.10
2023-04-18T12:47:38.968Z,17.33
2023-04-18T12:49:34.418Z,16.20
2023-04-18T12:51:29.641Z,16.80
2023-04-18T12:53:25.050Z,24.10
2023-04-18T12:55:23.717Z,19.00
2023-04-18T12:57:20.057Z,17.42
2023-04-18T12:59:15.644Z,20.83
2023-04-18T13:01:18.187Z,18.53
2023-04-18T13:03:13.783Z,19.77
2023-04-18T13:05:10.772Z,19.27
2023-04-18T13:07:06.301Z,20.98
2023-04-18T13:09:02.112Z,22.27
2023-04-18T13:11:01.486Z,21.65
2023-04-18T13:12:56.960Z,19.92
2023-04-18T13:14:52.099Z,19.50
2023-04-18T13:16:48.785Z,20.33
2023-04-18T13:18:43.973Z,18.35
2023-04-18T13:20:39.517Z,18.50
2023-04-18T13:22:34.607Z,18.00
2023-04-18T13:24:30.318Z,19.58
2023-04-18T13:26:28.329Z,20.20
2023-04-18T13:28:23.819Z,15.30
2023-04-18T13:30:18.989Z,25.65
2023-04-18T13:32:15.038Z,22.80
2023-04-18T13:34:10.202Z,16.40
2023-04-18T13:36:06.578Z,18.63
2023-04-18T13:38:02.038Z,25.65
2023-04-18T13:39:57.806Z,16.05
2023-04-18T13:41:56.058Z,17.08
2023-04-18T13:43:51.574Z,18.60
2023-04-18T13:45:46.787Z,21.23
2023-04-18T13:47:43.098Z,17.95
2023-04-18T13:49:38.777Z,18.48
2023-04-18T13:51:34.758Z,15.70
2023-04-18T13:53:31.091Z,18.08
2023-04-18T13:55:27.767Z,16.40
2023-04-18T13:57:25.723Z,22.02
2023-04-18T13:59:36.981Z,16.95
2023-04-18T14:01:34.909Z,19.33
2023-04-18T14:03:31.054Z,16.53
2023-04-18T14:05:26.345Z,15.05
2023-04-18T14:07:21.849Z,20.20
2023-04-18T14:09:17.140Z,18.80
2023-04-18T14:11:14.458Z,19.55
2023-04-18T14:13:12.276Z,20.38
2023-04-18T14:15:09.136Z,15.60
2023-04-18T14:17:04.304Z,15.88
2023-04-18T14:18:59.916Z,16.65
2023-04-18T14:20:55.088Z,16.98
2023-04-18T14:22:53.347Z,20.30
2023-04-18T14:24:49.225Z,15.15
2023-04-18T14:26:44.785Z,18.52
2023-04-18T14:28:42.603Z,16.85
2023-04-18T14:30:38.623Z,13.85
2023-04-18T14:32:33.812Z,14.25
2023-04-18T14:34:31.152Z,17.33
2023-04-18T14:36:27.796Z,13.07
2023-04-18T14:38:26.526Z,15.32
2023-04-18T14:40:22.248Z,13.65
2023-04-18T14:42:17.751Z,14.48
2023-04-18T14:44:17.449Z,13.02
2023-04-18T14:46:16.570Z,46.17
2023-04-18T14:48:12.349Z,55.00
2023-04-18T14:50:12.058Z,40.97
2023-04-18T14:52:07.963Z,14.95
2023-04-18T14:54:03.371Z,13.85
2023-04-18T14:55:58.959Z,17.80
2023-04-18T14:57:54.898Z,13.90
2023-04-18T14:59:54.496Z,17.55
2023-04-18T15:01:56.719Z,17.00
2023-04-18T15:03:54.243Z,21.33
2023-04-18T15:05:50.185Z,14.67
2023-04-18T15:07:47.088Z,17.15
2023-04-18T15:09:42.864Z,22.38
2023-04-18T15:11:38.401Z,14.20
2023-04-18T15:13:34.174Z,15.75
2023-04-18T15:15:35.142Z,16.10
2023-04-18T15:17:31.144Z,17.20
2023-04-18T15:19:29.011Z,18.27
2023-04-18T15:21:24.788Z,14.30
2023-04-18T15:23:20.273Z,14.13
2023-04-18T15:27:45.005Z,18.27
2023-04-18T15:29:41.141Z,17.92
2023-04-18T15:31:39.295Z,14.50
2023-04-18T15:33:34.893Z,13.50
2023-04-18T15:35:30.457Z,48.60
2023-04-18T15:37:26.405Z,15.30
2023-04-18T15:39:23.608Z,15.18
2023-04-18T15:41:19.124Z,14.68
2023-04-18T15:43:14.378Z,13.45
2023-04-18T15:45:11.166Z,12.82
2023-04-18T15:47:09.297Z,9.77
2023-04-18T15:49:04.805Z,13.20
2023-04-18T15:50:59.989Z,13.60
2023-04-18T15:52:55.504Z,16.45
2023-04-18T15:54:50.843Z,10.02
2023-04-18T15:56:46.430Z,11.65
2023-04-18T15:58:41.821Z,16.30
2023-04-18T16:00:38.015Z,10.35
2023-04-18T16:03:23.859Z,11.63
2023-04-18T16:05:19.637Z,14.35
2023-04-18T16:07:16.097Z,11.98
2023-04-18T16:09:11.837Z,11.13
2023-04-18T16:11:07.295Z,11.57
2023-04-18T16:13:02.701Z,23.20
2023-04-18T16:15:00.823Z,10.63
2023-04-18T16:16:59.058Z,8.68
2023-04-18T16:18:56.748Z,12.63
2023-04-18T16:20:52.215Z,11.23
2023-04-18T16:22:47.303Z,9.15
2023-04-18T16:24:42.907Z,9.60
2023-04-18T16:26:38.087Z,14.70
2023-04-18T16:28:37.726Z,8.40
2023-04-18T16:30:32.849Z,7.38
2023-04-18T16:32:28.418Z,5.65
2023-04-18T16:34:26.254Z,9.00
2023-04-18T16:36:21.697Z,11.23
2023-04-18T16:38:16.889Z,7.83
2023-04-18T16:40:12.633Z,7.53
2023-04-18T16:42:08.033Z,10.55
2023-04-18T16:44:03.510Z,7.40
2023-04-18T16:46:00.395Z,8.02
2023-04-18T16:47:55.920Z,8.80
2023-04-18T16:49:54.269Z,8.55
2023-04-18T16:51:50.049Z,7.00
2023-04-18T16:53:46.799Z,7.05
2023-04-18T16:55:43.451Z,8.05
2023-04-18T16:57:38.533Z,6.53
2023-04-18T16:59:34.667Z,8.07
2023-04-18T17:01:29.852Z,6.83
2023-04-18T17:03:25.492Z,10.25
2023-04-18T17:05:23.960Z,8.43
2023-04-18T17:07:19.375Z,5.63
2023-04-18T17:09:17.789Z,7.03
2023-04-18T17:11:13.250Z,5.90
2023-04-18T17:13:08.581Z,11.93
2023-04-18T17:15:04.330Z,10.83
2023-04-18T17:16:59.725Z,8.50
2023-04-18T17:18:55.570Z,7.03
2023-04-18T17:20:53.463Z,6.77
2023-04-18T17:22:49.607Z,6.40
2023-04-18T17:24:44.665Z,5.53
2023-04-18T17:26:41.983Z,8.50
2023-04-18T17:28:37.027Z,9.93
2023-04-18T17:30:32.474Z,5.97
2023-04-18T17:32:27.610Z,5.20
2023-04-18T17:34:23.143Z,6.28
2023-04-18T17:36:20.937Z,9.37
2023-04-18T17:38:16.307Z,6.10
2023-04-18T17:40:12.692Z,7.43
2023-04-18T17:42:08.221Z,7.63
2023-04-18T17:44:06.720Z,5.60
2023-04-18T17:46:03.941Z,7.10
2023-04-18T17:48:04.435Z,5.53
2023-04-18T17:50:01.409Z,8.50
2023-04-18T17:51:59.008Z,7.20
2023-04-18T17:53:55.083Z,8.07
2023-04-18T17:55:52.222Z,9.47
2023-04-18T17:57:47.680Z,9.97
2023-04-18T17:59:45.050Z,12.93
2023-04-18T18:01:40.812Z,11.23
2023-04-18T18:03:36.367Z,6.90
2023-04-18T18:05:32.878Z,7.17
2023-04-18T18:07:31.226Z,11.23
2023-04-18T18:09:27.195Z,10.10
2023-04-18T18:11:23.222Z,8.13
2023-04-18T18:13:20.711Z,9.80
2023-04-18T18:15:17.686Z,8.60
2023-04-18T18:17:13.825Z,25.73
2023-04-18T18:19:09.938Z,11.97
2023-04-18T18:21:05.439Z,9.20
2023-04-18T18:23:03.213Z,10.27
2023-04-18T18:24:58.639Z,8.57
2023-04-18T18:26:53.689Z,8.10
2023-04-18T18:28:49.565Z,7.67
2023-04-18T18:30:44.888Z,8.73
2023-04-18T18:32:40.612Z,11.77
2023-04-18T18:34:36.293Z,6.30
2023-04-18T18:36:31.827Z,7.73
2023-04-18T18:38:29.523Z,10.40
2023-04-18T18:40:25.129Z,7.60
2023-04-18T18:42:20.167Z,10.40
2023-04-18T18:44:18.149Z,10.10
2023-04-18T18:46:13.381Z,8.23
2023-04-18T18:48:10.304Z,10.10
2023-04-18T18:50:05.599Z,7.97
2023-04-18T18:52:04.160Z,7.60
2023-04-18T18:54:01.893Z,7.90
2023-04-18T18:55:57.403Z,8.47
2023-04-18T18:57:52.865Z,6.47
2023-04-18T18:59:50.235Z,7.90
2023-04-18T19:01:45.825Z,10.30
2023-04-18T19:03:41.522Z,8.80
2023-04-18T19:05:36.749Z,8.23
2023-04-18T19:07:32.296Z,8.27
2023-04-18T19:09:29.883Z,8.07
2023-04-18T19:11:25.503Z,7.63
2023-04-18T19:13:25.270Z,9.97
2023-04-18T19:15:20.712Z,8.47
2023-04-18T19:17:17.822Z,26.93
2023-04-18T19:19:13.699Z,8.83
2023-04-18T19:21:08.947Z,7.53
2023-04-18T19:23:04.684Z,10.63
2023-04-18T19:25:03.207Z,16.33
2023-04-18T19:26:59.761Z,6.53
2023-04-18T19:28:55.381Z,9.77
2023-04-18T19:30:51.289Z,10.87
2023-04-18T19:32:46.877Z,8.60
2023-04-18T19:34:42.776Z,8.13
2023-04-18T19:36:38.231Z,9.13
2023-04-18T19:38:34.664Z,9.77
2023-04-18T19:40:32.817Z,10.17
2023-04-18T19:42:29.253Z,20.33
2023-04-18T19:44:25.224Z,10.07
2023-04-18T19:46:21.253Z,10.13
2023-04-18T19:48:16.743Z,6.40
2023-04-18T19:50:12.841Z,8.93
2023-04-18T19:52:08.615Z,8.57
2023-04-18T19:54:04.794Z,13.20
2023-04-18T19:56:02.712Z,8.60
2023-04-18T19:57:58.900Z,8.47
2023-04-18T19:59:54.284Z,10.47
2023-04-18T20:01:49.916Z,8.67
2023-04-18T20:03:45.866Z,10.67
2023-04-18T20:05:41.823Z,10.07
2023-04-18T20:07:37.869Z,9.53
2023-04-18T20:09:33.314Z,7.37
2023-04-18T20:11:31.040Z,8.33
2023-04-18T20:13:26.565Z,10.30
2023-04-18T20:15:22.958Z,8.63
2023-04-18T20:17:19.151Z,9.33
2023-04-18T20:19:14.757Z,12.47
2023-04-18T20:21:11.820Z,13.70
2023-04-18T20:23:06.970Z,10.40
2023-04-18T20:25:02.427Z,10.07
2023-04-18T20:27:01.831Z,10.87
2023-04-18T20:28:57.267Z,11.83
2023-04-18T20:30:52.386Z,8.37
2023-04-18T20:32:47.886Z,9.43
2023-04-18T20:34:42.997Z,7.67
2023-04-18T20:36:41.532Z,10.80
2023-04-18T20:38:36.953Z,12.13
2023-04-18T20:40:33.415Z,8.43
2023-04-18T20:42:32.448Z,8.20
2023-04-18T20:44:34.543Z,9.30
2023-04-18T20:46:31.211Z,8.03
2023-04-18T20:48:26.661Z,16.63
2023-04-18T20:50:22.063Z,10.67
2023-04-18T20:52:17.518Z,9.90
2023-04-18T20:54:12.744Z,9.77
2023-04-18T20:56:08.835Z,10.80
2023-04-18T20:58:06.454Z,7.93
2023-04-18T21:00:01.962Z,9.70
2023-04-18T21:01:57.183Z,8.53
2023-04-18T21:03:52.940Z,9.63
2023-04-18T21:05:48.135Z,9.87
2023-04-18T21:07:45.686Z,11.07
2023-04-18T21:09:41.015Z,12.67
2023-04-18T21:11:36.523Z,12.37
2023-04-18T21:13:34.597Z,9.43
2023-04-18T21:15:30.270Z,11.63
2023-04-18T21:17:25.704Z,10.80
2023-04-18T21:19:21.082Z,9.67
2023-04-18T21:21:16.116Z,11.30
2023-04-18T21:23:11.611Z,11.07
2023-04-18T21:25:07.509Z,12.47
2023-04-18T21:27:02.936Z,13.10
2023-04-18T21:29:02.691Z,8.70
2023-04-18T21:30:58.143Z,10.33
2023-04-18T21:32:53.331Z,14.57
2023-04-18T21:34:48.746Z,14.13
2023-04-18T21:36:43.759Z,11.17
2023-04-18T21:38:39.112Z,11.60
2023-04-18T21:40:34.193Z,11.27
2023-04-18T21:42:29.637Z,11.47
2023-04-18T21:44:27.286Z,11.03
2023-04-18T21:46:22.956Z,13.00
2023-04-18T21:48:18.101Z,13.67
2023-04-18T21:50:14.296Z,14.83
2023-04-18T21:52:09.285Z,11.00
2023-04-18T21:54:04.723Z,11.87
2023-04-18T21:55:59.812Z,12.07
2023-04-18T21:57:55.287Z,15.30
2023-04-18T21:59:53.000Z,12.13
2023-04-18T22:01:48.463Z,13.37
2023-04-18T22:03:43.727Z,11.57
2023-04-18T22:05:39.277Z,9.67
2023-04-18T22:07:43.266Z,13.97
2023-04-18T22:09:46.328Z,12.33
2023-04-18T22:11:41.802Z,13.03
2023-04-18T22:13:39.028Z,14.53
2023-04-18T22:15:39.342Z,13.40
2023-04-18T22:17:35.213Z,12.57
2023-04-18T22:19:31.531Z,16.03
2023-04-18T22:21:27.645Z,11.03
2023-04-18T22:23:23.044Z,13.87
2023-04-18T22:25:18.798Z,10.33
2023-04-18T22:27:14.260Z,11.70
2023-04-18T22:29:10.121Z,14.70
2023-04-18T22:31:08.539Z,14.67
2023-04-18T22:33:04.478Z,13.67
2023-04-18T22:35:00.193Z,12.50
2023-04-18T22:36:55.918Z,15.97
2023-04-18T22:38:51.302Z,11.43
2023-04-18T22:40:46.847Z,11.50
2023-04-18T22:42:42.092Z,14.73
2023-04-18T22:44:37.486Z,11.63
2023-04-18T22:46:35.399Z,12.83
2023-04-18T22:48:31.256Z,11.20
2023-04-18T22:50:26.382Z,11.40
2023-04-18T22:52:24.801Z,14.43
2023-04-18T22:54:19.803Z,13.73
2023-04-18T22:56:15.223Z,10.97
2023-04-18T22:58:10.330Z,17.80
2023-04-18T23:00:06.759Z,15.57
2023-04-18T23:02:04.625Z,13.27
2023-04-18T23:04:00.523Z,15.30
2023-04-18T23:05:56.043Z,9.73
2023-04-18T23:07:51.493Z,10.13
2023-04-18T23:09:46.561Z,9.17
2023-04-18T23:11:41.928Z,9.93
2023-04-18T23:13:36.906Z,10.63
2023-04-18T23:15:32.456Z,10.20
2023-04-18T23:17:30.337Z,10.07
2023-04-18T23:19:25.780Z,9.93
2023-04-18T23:21:21.085Z,16.33
2023-04-18T23:23:16.489Z,12.93
2023-04-18T23:25:11.918Z,9.40
2023-04-18T23:27:07.475Z,11.50
2023-04-18T23:29:02.547Z,11.10
2023-04-18T23:30:58.005Z,11.40
2023-04-18T23:32:55.943Z,8.33
2023-04-18T23:34:51.516Z,13.27
2023-04-18T23:36:46.745Z,7.17
2023-04-18T23:38:42.360Z,9.73
2023-04-18T23:40:37.756Z,10.67
2023-04-18T23:42:34.795Z,12.53
2023-04-18T23:44:29.839Z,12.17
2023-04-18T23:46:28.773Z,8.00
2023-04-18T23:48:37.281Z,12.00
2023-04-18T23:50:32.735Z,8.40
2023-04-18T23:52:27.851Z,13.53
2023-04-18T23:54:23.251Z,9.40
2023-04-18T23:56:18.406Z,9.00
2023-04-18T23:58:14.104Z,9.90
